sensor_id;sensor_type;location;lat;lon;timestamp;P1;durP1;ratioP1;P2;durP2;ratioP2
71806;SDS011;59655;42.590;23.364;2024-02-23T00:01:21;13.15;;;7.35;;
71806;SDS011;59655;42.590;23.364;2024-02-23T00:03:47;11.05;;;6.20;;
71806;SDS011;59655;42.590;23.364;2024-02-23T00:06:12;12.98;;;8.00;;
71806;SDS011;59655;42.590;23.364;2024-02-23T00:08:39;11.98;;;6.90;;
71806;SDS011;59655;42.590;23.364;2024-02-23T00:11:06;13.90;;;6.75;;
71806;SDS011;59655;42.590;23.364;2024-02-23T00:13:31;16.60;;;9.02;;
71806;SDS011;59655;42.590;23.364;2024-02-23T00:15:57;13.32;;;7.57;;
71806;SDS011;59655;42.590;23.364;2024-02-23T00:18:22;13.77;;;6.53;;
71806;SDS011;59655;42.590;23.364;2024-02-23T00:20:47;12.93;;;6.78;;
71806;SDS011;59655;42.590;23.364;2024-02-23T00:23:13;12.88;;;6.55;;
71806;SDS011;59655;42.590;23.364;2024-02-23T00:25:39;11.13;;;6.28;;
71806;SDS011;59655;42.590;23.364;2024-02-23T00:28:06;12.48;;;6.28;;
71806;SDS011;59655;42.590;23.364;2024-02-23T00:30:31;12.98;;;6.95;;
71806;SDS011;59655;42.590;23.364;2024-02-23T00:32:57;12.48;;;6.90;;
71806;SDS011;59655;42.590;23.364;2024-02-23T00:35:22;13.50;;;6.85;;
71806;SDS011;59655;42.590;23.364;2024-02-23T00:37:48;12.20;;;6.82;;
71806;SDS011;59655;42.590;23.364;2024-02-23T00:40:13;13.10;;;7.47;;
71806;SDS011;59655;42.590;23.364;2024-02-23T00:42:38;12.93;;;7.22;;
71806;SDS011;59655;42.590;23.364;2024-02-23T00:45:04;15.18;;;7.15;;
71806;SDS011;59655;42.590;23.364;2024-02-23T00:47:30;11.52;;;6.10;;
71806;SDS011;59655;42.590;23.364;2024-02-23T00:49:55;11.88;;;7.00;;
71806;SDS011;59655;42.590;23.364;2024-02-23T00:52:21;12.90;;;6.72;;
71806;SDS011;59655;42.590;23.364;2024-02-23T00:54:46;12.50;;;6.70;;
71806;SDS011;59655;42.590;23.364;2024-02-23T00:57:11;14.80;;;7.07;;
71806;SDS011;59655;42.590;23.364;2024-02-23T00:59:37;12.77;;;6.75;;
71806;SDS011;59655;42.590;23.364;2024-02-23T01:02:02;11.30;;;6.80;;
71806;SDS011;59655;42.590;23.364;2024-02-23T01:04:27;12.07;;;6.78;;
71806;SDS011;59655;42.590;23.364;2024-02-23T01:06:53;14.73;;;8.05;;
71806;SDS011;59655;42.590;23.364;2024-02-23T01:09:18;15.48;;;7.28;;
71806;SDS011;59655;42.590;23.364;2024-02-23T01:11:47;14.98;;;7.07;;
71806;SDS011;59655;42.590;23.364;2024-02-23T01:14:13;12.05;;;6.30;;
71806;SDS011;59655;42.590;23.364;2024-02-23T01:16:39;11.82;;;6.30;;
71806;SDS011;59655;42.590;23.364;2024-02-23T01:19:04;11.45;;;6.60;;
71806;SDS011;59655;42.590;23.364;2024-02-23T01:21:29;14.55;;;7.57;;
71806;SDS011;59655;42.590;23.364;2024-02-23T01:23:55;13.50;;;7.15;;
71806;SDS011;59655;42.590;23.364;2024-02-23T01:26:22;13.68;;;7.13;;
71806;SDS011;59655;42.590;23.364;2024-02-23T01:28:48;12.02;;;6.82;;
71806;SDS011;59655;42.590;23.364;2024-02-23T01:31:13;12.02;;;6.82;;
71806;SDS011;59655;42.590;23.364;2024-02-23T01:33:39;11.85;;;6.35;;
71806;SDS011;59655;42.590;23.364;2024-02-23T01:36:05;12.02;;;6.80;;
71806;SDS011;59655;42.590;23.364;2024-02-23T01:38:30;11.75;;;6.10;;
71806;SDS011;59655;42.590;23.364;2024-02-23T01:40:58;11.43;;;6.10;;
71806;SDS011;59655;42.590;23.364;2024-02-23T01:43:26;14.77;;;7.40;;
71806;SDS011;59655;42.590;23.364;2024-02-23T01:45:51;16.05;;;6.95;;
71806;SDS011;59655;42.590;23.364;2024-02-23T01:48:17;13.35;;;6.47;;
71806;SDS011;59655;42.590;23.364;2024-02-23T01:50:44;10.43;;;6.60;;
71806;SDS011;59655;42.590;23.364;2024-02-23T01:53:09;14.68;;;7.63;;
71806;SDS011;59655;42.590;23.364;2024-02-23T01:55:39;13.60;;;6.97;;
71806;SDS011;59655;42.590;23.364;2024-02-23T01:58:05;14.32;;;7.72;;
71806;SDS011;59655;42.590;23.364;2024-02-23T02:00:31;12.88;;;7.13;;
71806;SDS011;59655;42.590;23.364;2024-02-23T02:02:57;21.35;;;12.27;;
71806;SDS011;59655;42.590;23.364;2024-02-23T02:05:22;14.38;;;8.80;;
71806;SDS011;59655;42.590;23.364;2024-02-23T02:07:49;12.63;;;6.78;;
71806;SDS011;59655;42.590;23.364;2024-02-23T02:10:19;13.07;;;7.13;;
71806;SDS011;59655;42.590;23.364;2024-02-23T02:12:45;15.68;;;7.00;;
71806;SDS011;59655;42.590;23.364;2024-02-23T02:15:10;13.48;;;6.88;;
71806;SDS011;59655;42.590;23.364;2024-02-23T02:17:36;13.93;;;7.22;;
71806;SDS011;59655;42.590;23.364;2024-02-23T02:20:02;13.30;;;6.85;;
71806;SDS011;59655;42.590;23.364;2024-02-23T02:22:31;11.43;;;6.28;;
71806;SDS011;59655;42.590;23.364;2024-02-23T02:24:57;12.38;;;7.03;;
71806;SDS011;59655;42.590;23.364;2024-02-23T02:27:23;15.35;;;7.22;;
71806;SDS011;59655;42.590;23.364;2024-02-23T02:29:50;12.95;;;6.60;;
71806;SDS011;59655;42.590;23.364;2024-02-23T02:32:16;11.63;;;6.90;;
71806;SDS011;59655;42.590;23.364;2024-02-23T02:34:42;13.73;;;7.63;;
71806;SDS011;59655;42.590;23.364;2024-02-23T02:37:07;12.75;;;6.43;;
71806;SDS011;59655;42.590;23.364;2024-02-23T02:39:32;13.43;;;6.68;;
71806;SDS011;59655;42.590;23.364;2024-02-23T02:41:58;12.35;;;6.78;;
71806;SDS011;59655;42.590;23.364;2024-02-23T02:44:24;12.93;;;6.82;;
71806;SDS011;59655;42.590;23.364;2024-02-23T02:46:49;11.30;;;6.50;;
71806;SDS011;59655;42.590;23.364;2024-02-23T02:49:14;12.90;;;7.22;;
71806;SDS011;59655;42.590;23.364;2024-02-23T02:51:40;12.02;;;6.45;;
71806;SDS011;59655;42.590;23.364;2024-02-23T02:54:05;12.68;;;6.82;;
71806;SDS011;59655;42.590;23.364;2024-02-23T02:56:31;12.25;;;6.68;;
71806;SDS011;59655;42.590;23.364;2024-02-23T02:58:56;12.82;;;5.97;;
71806;SDS011;59655;42.590;23.364;2024-02-23T03:01:21;12.60;;;6.25;;
71806;SDS011;59655;42.590;23.364;2024-02-23T03:03:47;10.85;;;6.28;;
71806;SDS011;59655;42.590;23.364;2024-02-23T03:06:12;12.68;;;6.80;;
71806;SDS011;59655;42.590;23.364;2024-02-23T03:08:37;13.95;;;6.93;;
71806;SDS011;59655;42.590;23.364;2024-02-23T03:11:03;12.32;;;6.60;;
71806;SDS011;59655;42.590;23.364;2024-02-23T03:13:28;11.00;;;6.85;;
71806;SDS011;59655;42.590;23.364;2024-02-23T03:15:54;13.45;;;7.03;;
71806;SDS011;59655;42.590;23.364;2024-02-23T03:18:19;13.00;;;6.30;;
71806;SDS011;59655;42.590;23.364;2024-02-23T03:20:44;10.55;;;6.55;;
71806;SDS011;59655;42.590;23.364;2024-02-23T03:23:10;12.35;;;7.05;;
71806;SDS011;59655;42.590;23.364;2024-02-23T03:25:36;12.18;;;6.25;;
71806;SDS011;59655;42.590;23.364;2024-02-23T03:28:01;12.98;;;7.38;;
71806;SDS011;59655;42.590;23.364;2024-02-23T03:30:27;11.20;;;6.78;;
71806;SDS011;59655;42.590;23.364;2024-02-23T03:32:52;12.27;;;7.05;;
71806;SDS011;59655;42.590;23.364;2024-02-23T03:35:17;11.48;;;6.15;;
71806;SDS011;59655;42.590;23.364;2024-02-23T03:37:43;12.95;;;6.72;;
71806;SDS011;59655;42.590;23.364;2024-02-23T03:40:08;12.07;;;7.07;;
71806;SDS011;59655;42.590;23.364;2024-02-23T03:42:35;13.57;;;7.03;;
71806;SDS011;59655;42.590;23.364;2024-02-23T03:45:01;12.65;;;6.88;;
71806;SDS011;59655;42.590;23.364;2024-02-23T03:47:26;11.30;;;7.07;;
71806;SDS011;59655;42.590;23.364;2024-02-23T03:49:51;12.63;;;7.15;;
71806;SDS011;59655;42.590;23.364;2024-02-23T03:52:16;11.13;;;6.70;;
71806;SDS011;59655;42.590;23.364;2024-02-23T03:54:42;14.45;;;7.97;;
71806;SDS011;59655;42.590;23.364;2024-02-23T03:57:07;17.17;;;9.07;;
71806;SDS011;59655;42.590;23.364;2024-02-23T03:59:35;16.73;;;7.78;;
71806;SDS011;59655;42.590;23.364;2024-02-23T04:02:01;15.43;;;8.88;;
71806;SDS011;59655;42.590;23.364;2024-02-23T04:04:26;15.10;;;7.55;;
71806;SDS011;59655;42.590;23.364;2024-02-23T04:06:51;13.30;;;7.53;;
71806;SDS011;59655;42.590;23.364;2024-02-23T04:09:17;13.30;;;7.25;;
71806;SDS011;59655;42.590;23.364;2024-02-23T04:11:42;11.75;;;7.05;;
71806;SDS011;59655;42.590;23.364;2024-02-23T04:14:08;13.70;;;6.95;;
71806;SDS011;59655;42.590;23.364;2024-02-23T04:16:33;13.13;;;7.35;;
71806;SDS011;59655;42.590;23.364;2024-02-23T04:18:58;16.08;;;8.05;;
71806;SDS011;59655;42.590;23.364;2024-02-23T04:21:25;14.90;;;7.80;;
71806;SDS011;59655;42.590;23.364;2024-02-23T04:23:50;16.23;;;8.45;;
71806;SDS011;59655;42.590;23.364;2024-02-23T04:26:17;16.20;;;8.32;;
71806;SDS011;59655;42.590;23.364;2024-02-23T04:28:43;19.50;;;12.25;;
71806;SDS011;59655;42.590;23.364;2024-02-23T04:31:08;13.63;;;6.93;;
71806;SDS011;59655;42.590;23.364;2024-02-23T04:33:35;16.13;;;7.60;;
71806;SDS011;59655;42.590;23.364;2024-02-23T04:36:03;11.85;;;7.20;;
71806;SDS011;59655;42.590;23.364;2024-02-23T04:38:29;19.23;;;11.35;;
71806;SDS011;59655;42.590;23.364;2024-02-23T04:40:55;16.60;;;9.07;;
71806;SDS011;59655;42.590;23.364;2024-02-23T04:43:21;11.45;;;6.47;;
71806;SDS011;59655;42.590;23.364;2024-02-23T04:45:48;13.57;;;8.02;;
71806;SDS011;59655;42.590;23.364;2024-02-23T04:48:13;14.93;;;9.70;;
71806;SDS011;59655;42.590;23.364;2024-02-23T04:50:38;21.75;;;10.45;;
71806;SDS011;59655;42.590;23.364;2024-02-23T04:53:04;22.48;;;13.15;;
71806;SDS011;59655;42.590;23.364;2024-02-23T04:55:29;16.52;;;8.80;;
71806;SDS011;59655;42.590;23.364;2024-02-23T04:57:54;16.30;;;8.23;;
71806;SDS011;59655;42.590;23.364;2024-02-23T05:00:20;13.70;;;7.72;;
71806;SDS011;59655;42.590;23.364;2024-02-23T05:02:46;12.18;;;7.07;;
71806;SDS011;59655;42.590;23.364;2024-02-23T05:05:11;17.00;;;10.00;;
71806;SDS011;59655;42.590;23.364;2024-02-23T05:07:37;13.77;;;7.72;;
71806;SDS011;59655;42.590;23.364;2024-02-23T05:10:03;14.38;;;8.23;;
71806;SDS011;59655;42.590;23.364;2024-02-23T05:12:29;12.80;;;8.07;;
71806;SDS011;59655;42.590;23.364;2024-02-23T05:14:54;10.23;;;5.70;;
71806;SDS011;59655;42.590;23.364;2024-02-23T05:17:19;11.43;;;5.75;;
71806;SDS011;59655;42.590;23.364;2024-02-23T05:19:45;10.27;;;5.40;;
71806;SDS011;59655;42.590;23.364;2024-02-23T05:22:11;11.05;;;5.70;;
71806;SDS011;59655;42.590;23.364;2024-02-23T05:24:37;11.98;;;6.68;;
71806;SDS011;59655;42.590;23.364;2024-02-23T05:27:02;13.60;;;9.10;;
71806;SDS011;59655;42.590;23.364;2024-02-23T05:29:28;15.02;;;8.55;;
71806;SDS011;59655;42.590;23.364;2024-02-23T05:31:53;19.88;;;11.23;;
71806;SDS011;59655;42.590;23.364;2024-02-23T05:34:19;11.23;;;6.40;;
71806;SDS011;59655;42.590;23.364;2024-02-23T05:36:44;15.00;;;9.27;;
71806;SDS011;59655;42.590;23.364;2024-02-23T05:39:15;15.05;;;7.75;;
71806;SDS011;59655;42.590;23.364;2024-02-23T05:41:41;16.38;;;8.32;;
71806;SDS011;59655;42.590;23.364;2024-02-23T05:44:07;13.05;;;6.68;;
71806;SDS011;59655;42.590;23.364;2024-02-23T05:46:33;13.18;;;6.60;;
71806;SDS011;59655;42.590;23.364;2024-02-23T05:48:59;10.23;;;5.70;;
71806;SDS011;59655;42.590;23.364;2024-02-23T05:51:27;11.88;;;6.32;;
71806;SDS011;59655;42.590;23.364;2024-02-23T05:56:19;11.38;;;6.13;;
71806;SDS011;59655;42.590;23.364;2024-02-23T05:58:46;10.93;;;5.53;;
71806;SDS011;59655;42.590;23.364;2024-02-23T06:01:13;10.50;;;6.00;;
71806;SDS011;59655;42.590;23.364;2024-02-23T06:03:39;10.48;;;6.38;;
71806;SDS011;59655;42.590;23.364;2024-02-23T06:06:07;12.70;;;7.32;;
71806;SDS011;59655;42.590;23.364;2024-02-23T06:08:35;13.73;;;7.13;;
71806;SDS011;59655;42.590;23.364;2024-02-23T06:11:01;12.52;;;6.95;;
71806;SDS011;59655;42.590;23.364;2024-02-23T06:13:28;14.55;;;6.85;;
71806;SDS011;59655;42.590;23.364;2024-02-23T06:15:54;11.35;;;6.60;;
71806;SDS011;59655;42.590;23.364;2024-02-23T06:18:19;12.70;;;7.53;;
71806;SDS011;59655;42.590;23.364;2024-02-23T06:20:45;13.18;;;6.68;;
71806;SDS011;59655;42.590;23.364;2024-02-23T06:23:11;14.45;;;7.13;;
71806;SDS011;59655;42.590;23.364;2024-02-23T06:25:38;12.23;;;6.90;;
71806;SDS011;59655;42.590;23.364;2024-02-23T06:28:03;11.77;;;6.90;;
71806;SDS011;59655;42.590;23.364;2024-02-23T06:30:29;14.35;;;6.63;;
71806;SDS011;59655;42.590;23.364;2024-02-23T06:32:54;13.77;;;7.22;;
71806;SDS011;59655;42.590;23.364;2024-02-23T06:35:19;13.30;;;7.63;;
71806;SDS011;59655;42.590;23.364;2024-02-23T06:37:46;13.82;;;6.55;;
71806;SDS011;59655;42.590;23.364;2024-02-23T06:40:12;13.98;;;6.82;;
71806;SDS011;59655;42.590;23.364;2024-02-23T06:42:37;12.75;;;7.43;;
71806;SDS011;59655;42.590;23.364;2024-02-23T06:45:03;12.25;;;7.03;;
71806;SDS011;59655;42.590;23.364;2024-02-23T06:47:30;13.02;;;7.00;;
71806;SDS011;59655;42.590;23.364;2024-02-23T06:49:55;13.93;;;6.93;;
71806;SDS011;59655;42.590;23.364;2024-02-23T06:52:20;14.38;;;6.28;;
71806;SDS011;59655;42.590;23.364;2024-02-23T06:54:46;12.55;;;6.97;;
71806;SDS011;59655;42.590;23.364;2024-02-23T06:57:11;11.05;;;6.55;;
71806;SDS011;59655;42.590;23.364;2024-02-23T06:59:37;14.05;;;6.80;;
71806;SDS011;59655;42.590;23.364;2024-02-23T07:02:02;11.35;;;6.35;;
71806;SDS011;59655;42.590;23.364;2024-02-23T07:04:29;11.85;;;6.75;;
71806;SDS011;59655;42.590;23.364;2024-02-23T07:06:55;15.10;;;6.95;;
71806;SDS011;59655;42.590;23.364;2024-02-23T07:09:20;13.35;;;7.30;;
71806;SDS011;59655;42.590;23.364;2024-02-23T07:11:46;13.57;;;7.43;;
71806;SDS011;59655;42.590;23.364;2024-02-23T07:14:11;16.05;;;6.97;;
71806;SDS011;59655;42.590;23.364;2024-02-23T07:16:39;16.35;;;7.03;;
71806;SDS011;59655;42.590;23.364;2024-02-23T07:19:05;11.90;;;6.78;;
71806;SDS011;59655;42.590;23.364;2024-02-23T07:21:30;17.10;;;7.18;;
71806;SDS011;59655;42.590;23.364;2024-02-23T07:23:56;13.45;;;6.68;;
71806;SDS011;59655;42.590;23.364;2024-02-23T07:26:21;11.65;;;7.18;;
71806;SDS011;59655;42.590;23.364;2024-02-23T07:28:47;11.52;;;6.72;;
71806;SDS011;59655;42.590;23.364;2024-02-23T07:31:14;12.48;;;7.07;;
71806;SDS011;59655;42.590;23.364;2024-02-23T07:33:39;12.55;;;6.68;;
71806;SDS011;59655;42.590;23.364;2024-02-23T07:36:05;12.63;;;7.13;;
71806;SDS011;59655;42.590;23.364;2024-02-23T07:38:30;14.93;;;7.53;;
71806;SDS011;59655;42.590;23.364;2024-02-23T07:40:55;16.65;;;7.97;;
71806;SDS011;59655;42.590;23.364;2024-02-23T07:43:21;14.80;;;8.07;;
71806;SDS011;59655;42.590;23.364;2024-02-23T07:45:46;18.55;;;7.75;;
71806;SDS011;59655;42.590;23.364;2024-02-23T07:48:11;17.20;;;8.57;;
71806;SDS011;59655;42.590;23.364;2024-02-23T07:50:37;19.00;;;8.73;;
71806;SDS011;59655;42.590;23.364;2024-02-23T07:53:03;18.30;;;8.02;;
71806;SDS011;59655;42.590;23.364;2024-02-23T07:55:29;15.27;;;8.63;;
71806;SDS011;59655;42.590;23.364;2024-02-23T07:57:54;14.15;;;8.43;;
71806;SDS011;59655;42.590;23.364;2024-02-23T08:00:26;14.80;;;8.43;;
71806;SDS011;59655;42.590;23.364;2024-02-23T08:02:51;20.67;;;9.20;;
71806;SDS011;59655;42.590;23.364;2024-02-23T08:05:16;17.65;;;9.65;;
71806;SDS011;59655;42.590;23.364;2024-02-23T08:07:42;16.48;;;9.07;;
71806;SDS011;59655;42.590;23.364;2024-02-23T08:10:07;16.77;;;9.15;;
71806;SDS011;59655;42.590;23.364;2024-02-23T08:12:34;17.00;;;9.27;;
71806;SDS011;59655;42.590;23.364;2024-02-23T08:14:59;19.23;;;10.23;;
71806;SDS011;59655;42.590;23.364;2024-02-23T08:17:25;21.33;;;10.73;;
71806;SDS011;59655;42.590;23.364;2024-02-23T08:19:51;15.93;;;9.45;;
71806;SDS011;59655;42.590;23.364;2024-02-23T08:22:16;19.90;;;10.43;;
71806;SDS011;59655;42.590;23.364;2024-02-23T08:24:41;24.15;;;10.32;;
71806;SDS011;59655;42.590;23.364;2024-02-23T08:27:07;22.33;;;10.80;;
71806;SDS011;59655;42.590;23.364;2024-02-23T08:29:32;23.02;;;10.48;;
71806;SDS011;59655;42.590;23.364;2024-02-23T08:31:58;20.23;;;10.32;;
71806;SDS011;59655;42.590;23.364;2024-02-23T08:34:23;18.15;;;8.93;;
71806;SDS011;59655;42.590;23.364;2024-02-23T08:36:49;18.63;;;9.32;;
71806;SDS011;59655;42.590;23.364;2024-02-23T08:39:15;21.30;;;10.45;;
71806;SDS011;59655;42.590;23.364;2024-02-23T08:41:41;19.63;;;10.18;;
71806;SDS011;59655;42.590;23.364;2024-02-23T08:44:06;18.58;;;9.50;;
71806;SDS011;59655;42.590;23.364;2024-02-23T08:46:31;17.55;;;9.23;;
71806;SDS011;59655;42.590;23.364;2024-02-23T08:48:57;15.05;;;9.65;;
71806;SDS011;59655;42.590;23.364;2024-02-23T08:51:22;19.10;;;8.32;;
71806;SDS011;59655;42.590;23.364;2024-02-23T08:53:47;16.48;;;8.10;;
71806;SDS011;59655;42.590;23.364;2024-02-23T08:56:13;14.90;;;8.00;;
71806;SDS011;59655;42.590;23.364;2024-02-23T08:58:40;13.30;;;7.57;;
71806;SDS011;59655;42.590;23.364;2024-02-23T09:01:05;11.60;;;6.95;;
71806;SDS011;59655;42.590;23.364;2024-02-23T09:03:31;12.65;;;6.53;;
71806;SDS011;59655;42.590;23.364;2024-02-23T09:05:57;15.15;;;5.90;;
71806;SDS011;59655;42.590;23.364;2024-02-23T09:08:22;10.25;;;5.43;;
71806;SDS011;59655;42.590;23.364;2024-02-23T09:10:47;16.52;;;5.35;;
71806;SDS011;59655;42.590;23.364;2024-02-23T09:13:13;15.35;;;5.03;;
71806;SDS011;59655;42.590;23.364;2024-02-23T09:15:39;9.05;;;3.92;;
71806;SDS011;59655;42.590;23.364;2024-02-23T09:18:04;9.77;;;4.75;;
71806;SDS011;59655;42.590;23.364;2024-02-23T09:20:29;9.77;;;4.90;;
71806;SDS011;59655;42.590;23.364;2024-02-23T09:22:55;10.00;;;5.13;;
71806;SDS011;59655;42.590;23.364;2024-02-23T09:25:20;11.45;;;4.40;;
71806;SDS011;59655;42.590;23.364;2024-02-23T09:27:46;7.90;;;3.70;;
71806;SDS011;59655;42.590;23.364;2024-02-23T09:30:14;8.18;;;3.38;;
71806;SDS011;59655;42.590;23.364;2024-02-23T09:35:05;6.00;;;3.27;;
71806;SDS011;59655;42.590;23.364;2024-02-23T09:37:31;6.80;;;4.20;;
71806;SDS011;59655;42.590;23.364;2024-02-23T09:39:57;7.28;;;3.13;;
71806;SDS011;59655;42.590;23.364;2024-02-23T09:42:23;4.65;;;2.80;;
71806;SDS011;59655;42.590;23.364;2024-02-23T09:45:00;6.18;;;3.08;;
71806;SDS011;59655;42.590;23.364;2024-02-23T09:47:29;10.77;;;3.90;;
71806;SDS011;59655;42.590;23.364;2024-02-23T09:49:55;5.35;;;3.17;;
71806;SDS011;59655;42.590;23.364;2024-02-23T09:52:20;4.45;;;2.65;;
71806;SDS011;59655;42.590;23.364;2024-02-23T09:54:47;4.90;;;2.97;;
71806;SDS011;59655;42.590;23.364;2024-02-23T09:57:13;6.65;;;2.72;;
71806;SDS011;59655;42.590;23.364;2024-02-23T09:59:39;5.53;;;2.70;;
71806;SDS011;59655;42.590;23.364;2024-02-23T10:02:08;4.95;;;2.45;;
71806;SDS011;59655;42.590;23.364;2024-02-23T10:04:37;4.68;;;2.53;;
71806;SDS011;59655;42.590;23.364;2024-02-23T10:07:04;5.00;;;2.63;;
71806;SDS011;59655;42.590;23.364;2024-02-23T10:09:30;5.97;;;2.45;;
71806;SDS011;59655;42.590;23.364;2024-02-23T10:11:56;5.10;;;2.00;;
71806;SDS011;59655;42.590;23.364;2024-02-23T10:14:22;4.38;;;2.20;;
71806;SDS011;59655;42.590;23.364;2024-02-23T10:16:47;5.72;;;2.00;;
71806;SDS011;59655;42.590;23.364;2024-02-23T10:21:47;4.00;;;2.08;;
71806;SDS011;59655;42.590;23.364;2024-02-23T10:24:16;3.63;;;1.90;;
71806;SDS011;59655;42.590;23.364;2024-02-23T10:26:44;4.88;;;1.80;;
71806;SDS011;59655;42.590;23.364;2024-02-23T10:29:09;5.95;;;2.30;;
71806;SDS011;59655;42.590;23.364;2024-02-23T10:31:35;7.10;;;2.08;;
71806;SDS011;59655;42.590;23.364;2024-02-23T10:34:04;3.63;;;1.50;;
71806;SDS011;59655;42.590;23.364;2024-02-23T10:36:36;3.22;;;1.73;;
71806;SDS011;59655;42.590;23.364;2024-02-23T10:39:02;4.10;;;1.60;;
71806;SDS011;59655;42.590;23.364;2024-02-23T10:41:30;4.85;;;1.75;;
71806;SDS011;59655;42.590;23.364;2024-02-23T10:43:59;3.83;;;1.80;;
71806;SDS011;59655;42.590;23.364;2024-02-23T10:46:25;3.45;;;1.80;;
71806;SDS011;59655;42.590;23.364;2024-02-23T10:48:51;3.50;;;1.80;;
71806;SDS011;59655;42.590;23.364;2024-02-23T10:51:19;3.50;;;1.70;;
71806;SDS011;59655;42.590;23.364;2024-02-23T10:53:44;3.15;;;1.75;;
71806;SDS011;59655;42.590;23.364;2024-02-23T10:56:11;4.55;;;2.17;;
71806;SDS011;59655;42.590;23.364;2024-02-23T10:58:37;3.50;;;1.95;;
71806;SDS011;59655;42.590;23.364;2024-02-23T11:01:03;3.47;;;1.63;;
71806;SDS011;59655;42.590;23.364;2024-02-23T11:03:32;3.08;;;1.60;;
71806;SDS011;59655;42.590;23.364;2024-02-23T11:08:29;2.92;;;1.60;;
71806;SDS011;59655;42.590;23.364;2024-02-23T11:10:54;5.47;;;2.20;;
71806;SDS011;59655;42.590;23.364;2024-02-23T11:13:30;4.47;;;1.75;;
71806;SDS011;59655;42.590;23.364;2024-02-23T11:16:05;5.18;;;2.45;;
71806;SDS011;59655;42.590;23.364;2024-02-23T11:18:31;5.38;;;2.60;;
71806;SDS011;59655;42.590;23.364;2024-02-23T11:20:59;7.82;;;3.47;;
71806;SDS011;59655;42.590;23.364;2024-02-23T11:23:25;3.58;;;1.88;;
71806;SDS011;59655;42.590;23.364;2024-02-23T11:28:28;6.15;;;2.35;;
71806;SDS011;59655;42.590;23.364;2024-02-23T11:30:53;7.78;;;2.70;;
71806;SDS011;59655;42.590;23.364;2024-02-23T11:33:25;2.95;;;2.00;;
71806;SDS011;59655;42.590;23.364;2024-02-23T11:35:51;6.20;;;2.55;;
71806;SDS011;59655;42.590;23.364;2024-02-23T11:38:17;4.60;;;2.70;;
71806;SDS011;59655;42.590;23.364;2024-02-23T11:40:45;7.15;;;2.30;;
71806;SDS011;59655;42.590;23.364;2024-02-23T11:43:12;8.15;;;2.58;;
71806;SDS011;59655;42.590;23.364;2024-02-23T11:45:39;5.20;;;2.40;;
71806;SDS011;59655;42.590;23.364;2024-02-23T11:48:05;3.58;;;1.83;;
71806;SDS011;59655;42.590;23.364;2024-02-23T11:50:31;4.72;;;2.40;;
71806;SDS011;59655;42.590;23.364;2024-02-23T11:52:57;4.93;;;2.33;;
71806;SDS011;59655;42.590;23.364;2024-02-23T11:55:22;4.72;;;2.03;;
71806;SDS011;59655;42.590;23.364;2024-02-23T11:57:48;3.38;;;2.00;;
71806;SDS011;59655;42.590;23.364;2024-02-23T12:00:14;4.00;;;2.13;;
71806;SDS011;59655;42.590;23.364;2024-02-23T12:02:40;5.47;;;2.35;;
71806;SDS011;59655;42.590;23.364;2024-02-23T12:05:05;5.13;;;2.20;;
71806;SDS011;59655;42.590;23.364;2024-02-23T12:07:31;6.07;;;2.50;;
71806;SDS011;59655;42.590;23.364;2024-02-23T12:09:58;4.57;;;1.65;;
71806;SDS011;59655;42.590;23.364;2024-02-23T12:12:25;7.40;;;2.40;;
71806;SDS011;59655;42.590;23.364;2024-02-23T12:14:51;4.28;;;1.98;;
71806;SDS011;59655;42.590;23.364;2024-02-23T12:17:16;6.70;;;2.50;;
71806;SDS011;59655;42.590;23.364;2024-02-23T12:19:41;8.02;;;2.60;;
71806;SDS011;59655;42.590;23.364;2024-02-23T12:22:07;5.32;;;2.50;;
71806;SDS011;59655;42.590;23.364;2024-02-23T12:24:34;3.42;;;1.85;;
71806;SDS011;59655;42.590;23.364;2024-02-23T12:26:59;3.35;;;1.85;;
71806;SDS011;59655;42.590;23.364;2024-02-23T12:29:25;3.22;;;1.90;;
71806;SDS011;59655;42.590;23.364;2024-02-23T12:31:52;3.75;;;1.85;;
71806;SDS011;59655;42.590;23.364;2024-02-23T12:34:28;3.20;;;1.60;;
71806;SDS011;59655;42.590;23.364;2024-02-23T12:36:53;5.35;;;2.00;;
71806;SDS011;59655;42.590;23.364;2024-02-23T12:39:20;3.30;;;1.83;;
71806;SDS011;59655;42.590;23.364;2024-02-23T12:41:46;5.10;;;1.85;;
71806;SDS011;59655;42.590;23.364;2024-02-23T12:44:11;3.67;;;1.73;;
71806;SDS011;59655;42.590;23.364;2024-02-23T12:46:37;3.47;;;1.90;;
71806;SDS011;59655;42.590;23.364;2024-02-23T12:49:02;4.10;;;2.22;;
71806;SDS011;59655;42.590;23.364;2024-02-23T12:51:27;4.88;;;1.83;;
71806;SDS011;59655;42.590;23.364;2024-02-23T12:53:53;3.20;;;1.83;;
71806;SDS011;59655;42.590;23.364;2024-02-23T12:56:19;3.92;;;2.13;;
71806;SDS011;59655;42.590;23.364;2024-02-23T12:58:45;7.13;;;2.50;;
71806;SDS011;59655;42.590;23.364;2024-02-23T13:01:11;6.32;;;2.00;;
71806;SDS011;59655;42.590;23.364;2024-02-23T13:03:37;4.78;;;1.92;;
71806;SDS011;59655;42.590;23.364;2024-02-23T13:08:30;3.45;;;1.83;;
71806;SDS011;59655;42.590;23.364;2024-02-23T13:10:56;5.60;;;2.03;;
71806;SDS011;59655;42.590;23.364;2024-02-23T13:13:22;5.00;;;2.15;;
71806;SDS011;59655;42.590;23.364;2024-02-23T13:15:49;5.88;;;2.20;;
71806;SDS011;59655;42.590;23.364;2024-02-23T13:18:16;3.58;;;2.08;;
71806;SDS011;59655;42.590;23.364;2024-02-23T13:20:41;4.35;;;2.00;;
71806;SDS011;59655;42.590;23.364;2024-02-23T13:23:07;4.95;;;1.90;;
71806;SDS011;59655;42.590;23.364;2024-02-23T13:25:37;3.38;;;1.92;;
71806;SDS011;59655;42.590;23.364;2024-02-23T13:28:03;3.88;;;2.10;;
71806;SDS011;59655;42.590;23.364;2024-02-23T13:30:29;4.63;;;2.00;;
71806;SDS011;59655;42.590;23.364;2024-02-23T13:32:55;3.97;;;2.10;;
71806;SDS011;59655;42.590;23.364;2024-02-23T13:35:21;3.08;;;1.75;;
71806;SDS011;59655;42.590;23.364;2024-02-23T13:37:46;4.65;;;2.05;;
71806;SDS011;59655;42.590;23.364;2024-02-23T13:40:12;5.03;;;2.10;;
71806;SDS011;59655;42.590;23.364;2024-02-23T13:42:37;3.55;;;2.08;;
71806;SDS011;59655;42.590;23.364;2024-02-23T13:45:04;4.88;;;2.70;;
71806;SDS011;59655;42.590;23.364;2024-02-23T13:47:31;6.55;;;2.30;;
71806;SDS011;59655;42.590;23.364;2024-02-23T13:49:56;3.03;;;1.73;;
71806;SDS011;59655;42.590;23.364;2024-02-23T13:52:22;7.88;;;4.28;;
71806;SDS011;59655;42.590;23.364;2024-02-23T13:54:47;5.80;;;2.70;;
71806;SDS011;59655;42.590;23.364;2024-02-23T13:57:13;3.35;;;2.28;;
71806;SDS011;59655;42.590;23.364;2024-02-23T13:59:38;4.28;;;2.03;;
71806;SDS011;59655;42.590;23.364;2024-02-23T14:02:03;3.50;;;2.00;;
71806;SDS011;59655;42.590;23.364;2024-02-23T14:04:29;5.05;;;2.10;;
71806;SDS011;59655;42.590;23.364;2024-02-23T14:06:54;8.75;;;2.15;;
71806;SDS011;59655;42.590;23.364;2024-02-23T14:09:20;3.22;;;1.90;;
71806;SDS011;59655;42.590;23.364;2024-02-23T14:11:45;3.13;;;1.67;;
71806;SDS011;59655;42.590;23.364;2024-02-23T14:14:10;5.38;;;2.10;;
71806;SDS011;59655;42.590;23.364;2024-02-23T14:16:36;4.13;;;2.15;;
71806;SDS011;59655;42.590;23.364;2024-02-23T14:19:01;6.38;;;2.00;;
71806;SDS011;59655;42.590;23.364;2024-02-23T14:21:27;6.70;;;2.50;;
71806;SDS011;59655;42.590;23.364;2024-02-23T14:23:52;3.00;;;1.75;;
71806;SDS011;59655;42.590;23.364;2024-02-23T14:26:18;3.53;;;2.22;;
71806;SDS011;59655;42.590;23.364;2024-02-23T14:28:43;2.60;;;1.58;;
71806;SDS011;59655;42.590;23.364;2024-02-23T14:31:08;4.13;;;1.63;;
71806;SDS011;59655;42.590;23.364;2024-02-23T14:33:34;4.65;;;2.10;;